Delta Virtual Airport Information Service

Bogota El Dorado International Airport

ICAO: SKBO Country: Colombia
Latitude: 4.70306 Longitude: -74.1383
Latest Arrival : DAC8588 (KDFW-SKBO) Latest Departure : DAC8588 (SKBO-KMCO)


WX CaptureLIVE
Data provided by noaa.gov | Fetched at 09:04:37

METAR : SKBO 041500Z 01003KT 9999 VCSH SCT017 BKN070 13/11 Q1028 NOSIG RMK VCSH/NE/SE A3037

TAF : SKBO 041030Z 0412/0512 06005KT 9999 SCT018 SCT080 TEMPO 0412/0414 7000 VCFG DZ SCT013 BECMG 0415/0417 29010KT TEMPO 0419/0423 6000 DZRA SCT017TCU BECMG 0500/0502 04005KT TEMPO 0510/0512 5000 BR SCT010 TX18/0418Z TN10/0510Z


Runway Data for SKBO
Data provided by openaviationdata.com

Runway ID Mag Var Hdg Length Elevation Surface ILS Freq ILS Id ILS Slope
13L -5 132° 12449 ft 8358 ft Asphalt 109.9 IEDR 3
13R -5 132° 12503 ft 8358 ft Asphalt 110.7 IADO 3
31L -5 312° 12503 ft 8358 ft Asphalt -- -- --
31R -5 312° 12449 ft 8358 ft Asphalt -- -- --

Bogota El Dorado International Airport, Colombia
Use only for reference purposes



Not for navigational purposes.